Time;durP1;ratioP1;P1;durP2;ratioP2;P2;SDS_P1;SDS_P2;PMS_P1;PMS_P2;Temp;Humidity;BMP_temperature;BMP_pressure;BME280_temperature;BME280_humidity;BME280_pressure;Samples;Min_cycle;Max_cycle;Signal;HPM_P1;HPM_P2
2023/09/29 00:00:49;;;;;;;18.52;9.82;;;23.20;75.40;;;;;;6214462;23;20005;-76
2023/09/29 00:03:15;;;;;;;17.80;9.20;;;23.20;74.20;;;;;;6215174;23;20151;-76
2023/09/29 00:05:45;;;;;;;18.73;9.70;;;23.20;73.90;;;;;;6187453;23;20108;-76
2023/09/29 00:08:16;;;;;;;17.05;9.50;;;23.10;73.60;;;;;;6214078;22;20100;-75
2023/09/29 00:10:45;;;;;;;18.08;9.88;;;23.10;73.60;;;;;;6188610;23;20438;-76
2023/09/29 00:13:11;;;;;;;16.08;9.60;;;23.10;73.70;;;;;;6214133;23;20005;-75
2023/09/29 00:15:38;;;;;;;18.10;9.50;;;23.10;73.30;;;;;;6236675;23;20065;-75
2023/09/29 00:18:05;;;;;;;18.38;9.30;;;23.00;73.20;;;;;;6232998;23;20008;-76
2023/09/29 00:20:31;;;;;;;19.10;9.18;;;23.00;73.00;;;;;;6189855;23;20005;-75
2023/09/29 00:22:59;;;;;;;17.02;10.00;;;23.00;73.10;;;;;;6216276;23;20047;-75
2023/09/29 00:25:25;;;;;;;17.63;10.20;;;22.90;73.40;;;;;;6215371;23;20071;-74
2023/09/29 00:27:52;;;;;;;18.60;9.85;;;22.90;73.50;;;;;;6215424;23;20331;-75
2023/09/29 00:30:18;;;;;;;18.02;10.45;;;22.90;73.60;;;;;;6215609;23;20004;-75
2023/09/29 00:32:51;;;;;;;19.15;10.18;;;22.90;73.50;;;;;;6189036;23;20008;-75
2023/09/29 00:35:27;;;;;;;;;;;22.90;73.30;;;;;;6216268;23;20072;-76
2023/09/29 00:37:57;;;;;;;20.05;10.63;;;22.90;73.60;;;;;;6215834;23;20317;-76
2023/09/29 00:40:25;;;;;;;20.25;10.70;;;22.90;73.50;;;;;;6215478;23;20327;-76
2023/09/29 00:42:52;;;;;;;20.42;10.70;;;22.90;73.60;;;;;;6215316;23;20058;-75
2023/09/29 00:45:22;;;;;;;17.80;11.23;;;22.90;73.60;;;;;;6215323;23;19996;-75
2023/09/29 00:47:50;;;;;;;19.70;11.50;;;22.90;74.20;;;;;;6215366;23;20008;-75
2023/09/29 00:50:18;;;;;;;18.35;12.00;;;22.80;74.30;;;;;;6215286;23;20339;-75
2023/09/29 00:52:45;;;;;;;20.58;12.18;;;22.80;74.50;;;;;;6188698;23;20031;-75
2023/09/29 00:55:15;;;;;;;21.85;12.05;;;22.90;74.90;;;;;;6215505;23;20000;-75
2023/09/29 00:57:43;;;;;;;20.30;12.55;;;22.90;75.00;;;;;;6215385;23;20083;-76
2023/09/29 01:00:18;;;;;;;21.10;12.65;;;22.90;75.10;;;;;;6214948;23;19996;-76
2023/09/29 01:02:44;;;;;;;17.95;12.35;;;22.90;75.30;;;;;;6194901;23;20012;-76
2023/09/29 01:05:13;;;;;;;22.13;12.73;;;22.80;75.10;;;;;;6200527;23;20465;-75
2023/09/29 01:07:41;;;;;;;26.25;14.43;;;22.90;75.50;;;;;;6218766;23;20079;-76
2023/09/29 01:10:08;;;;;;;23.38;14.30;;;22.80;75.90;;;;;;6190554;23;20386;-76
2023/09/29 01:12:35;;;;;;;20.92;13.77;;;22.80;76.10;;;;;;6215163;23;20008;-74
2023/09/29 01:15:00;;;;;;;21.98;13.80;;;22.70;76.30;;;;;;6215516;23;20385;-75
2023/09/29 01:17:26;;;;;;;24.45;14.20;;;22.70;76.50;;;;;;6215359;23;20075;-76
2023/09/29 01:19:52;;;;;;;22.83;13.48;;;22.70;76.80;;;;;;6188406;23;20009;-76
2023/09/29 01:22:18;;;;;;;21.05;13.93;;;22.70;76.80;;;;;;6215671;23;20102;-76
2023/09/29 01:24:45;;;;;;;23.42;13.57;;;22.60;76.90;;;;;;6215170;23;20001;-75
2023/09/29 01:27:11;;;;;;;16.27;12.57;;;22.60;77.00;;;;;;6214844;23;20008;-76
2023/09/29 01:29:39;;;;;;;20.40;12.82;;;22.60;77.40;;;;;;6214757;23;20005;-76
2023/09/29 01:32:05;;;;;;;19.27;12.15;;;22.50;76.90;;;;;;6215101;23;20000;-75
2023/09/29 01:34:31;;;;;;;15.90;11.40;;;22.60;77.00;;;;;;6215270;23;20304;-75
2023/09/29 01:36:59;;;;;;;15.77;11.50;;;22.50;76.40;;;;;;6214968;23;20004;-74
2023/09/29 01:39:25;;;;;;;16.52;11.20;;;22.50;76.10;;;;;;6214900;23;20023;-76
2023/09/29 01:41:51;;;;;;;15.75;11.18;;;22.50;76.00;;;;;;6214857;23;20056;-76
2023/09/29 01:44:17;;;;;;;19.45;10.40;;;22.40;75.60;;;;;;6187827;23;20078;-75
2023/09/29 01:46:43;;;;;;;17.10;10.57;;;22.40;75.80;;;;;;6214524;23;20382;-75
2023/09/29 01:49:09;;;;;;;19.52;11.43;;;22.40;75.60;;;;;;6214570;23;20009;-76
2023/09/29 01:51:35;;;;;;;15.60;12.00;;;22.40;75.60;;;;;;6214931;23;20054;-75
2023/09/29 01:54:00;;;;;;;20.25;11.75;;;22.40;75.70;;;;;;6214886;23;20407;-76
2023/09/29 01:56:26;;;;;;;20.50;12.20;;;22.30;76.00;;;;;;6215180;23;20001;-76
2023/09/29 01:58:52;;;;;;;17.08;12.52;;;22.30;76.30;;;;;;6215123;23;20072;-76
2023/09/29 02:01:17;;;;;;;15.45;11.63;;;22.30;76.40;;;;;;6215129;23;19997;-75
2023/09/29 02:03:45;;;;;;;15.73;11.45;;;22.30;76.70;;;;;;6214995;23;20084;-75
2023/09/29 02:06:10;;;;;;;17.23;10.90;;;22.20;76.60;;;;;;6215009;23;19996;-75
2023/09/29 02:08:36;;;;;;;17.95;10.88;;;22.20;76.60;;;;;;6214777;23;20024;-76
2023/09/29 02:11:02;;;;;;;15.18;9.73;;;22.10;76.20;;;;;;6214706;23;20354;-76
2023/09/29 02:13:30;;;;;;;14.63;9.98;;;22.10;76.30;;;;;;6214853;23;20004;-76
2023/09/29 02:15:55;;;;;;;14.27;9.38;;;22.00;76.00;;;;;;6214867;23;20055;-76
2023/09/29 02:18:21;;;;;;;15.48;9.98;;;22.10;76.00;;;;;;6214726;23;20381;-76
2023/09/29 02:20:47;;;;;;;15.38;9.80;;;22.00;75.40;;;;;;6215004;23;20000;-76
2023/09/29 02:23:14;;;;;;;12.60;9.00;;;22.00;75.50;;;;;;6192502;23;20032;-76
2023/09/29 02:25:41;;;;;;;14.00;9.35;;;22.00;75.70;;;;;;6238377;23;20007;-77
2023/09/29 02:28:10;;;;;;;16.50;9.73;;;21.90;75.20;;;;;;6221670;23;20020;-76
2023/09/29 02:30:37;;;;;;;14.30;9.43;;;21.90;75.20;;;;;;6215219;23;20076;-75
2023/09/29 02:33:02;;;;;;;17.92;9.65;;;21.90;75.00;;;;;;6214760;23;20008;-76
2023/09/29 02:35:28;;;;;;;14.95;9.25;;;21.80;75.20;;;;;;6214566;23;20008;-75
2023/09/29 02:37:54;;;;;;;15.55;9.00;;;21.80;75.10;;;;;;6214227;23;20031;-75
2023/09/29 02:40:22;;;;;;;14.55;9.38;;;21.80;75.20;;;;;;6214398;23;19997;-75
2023/09/29 02:42:47;;;;;;;14.25;9.43;;;21.80;74.90;;;;;;6213808;23;20351;-74
2023/09/29 02:45:13;;;;;;;12.73;8.82;;;21.80;75.20;;;;;;6214479;23;20023;-75
2023/09/29 02:47:39;;;;;;;15.43;9.15;;;21.80;75.00;;;;;;6214469;23;20352;-77
2023/09/29 02:50:14;;;;;;;14.93;9.30;;;21.90;74.90;;;;;;6214738;23;20453;-75
2023/09/29 02:52:40;;;;;;;19.25;8.77;;;21.90;74.60;;;;;;6214565;23;20489;-76
2023/09/29 02:55:12;;;;;;;13.43;9.02;;;21.80;74.30;;;;;;6214700;23;19997;-75
2023/09/29 02:57:40;;;;;;;17.08;8.93;;;21.80;74.60;;;;;;6215588;23;20005;-75
2023/09/29 03:00:10;;;;;;;13.95;9.18;;;21.80;74.30;;;;;;6188139;23;20101;-76
2023/09/29 03:02:35;;;;;;;18.50;10.00;;;21.80;74.60;;;;;;6214512;23;20004;-75
2023/09/29 03:05:01;;;;;;;15.38;8.73;;;21.80;74.30;;;;;;6214494;23;20001;-77
2023/09/29 03:07:27;;;;;;;16.45;9.10;;;21.80;74.30;;;;;;6214280;23;20168;-74
2023/09/29 03:09:56;;;;;;;14.20;8.73;;;21.70;74.00;;;;;;6214875;23;20103;-76
2023/09/29 03:12:21;;;;;;;17.70;8.90;;;21.70;73.90;;;;;;6214224;23;20011;-76
2023/09/29 03:14:47;;;;;;;17.67;9.32;;;21.70;73.90;;;;;;6214272;23;20000;-75
2023/09/29 03:17:13;;;;;;;16.13;8.88;;;21.70;73.70;;;;;;6214223;23;20001;-76
2023/09/29 03:19:38;;;;;;;15.55;9.20;;;21.60;73.60;;;;;;6214500;23;20068;-76
2023/09/29 03:22:04;;;;;;;16.15;8.82;;;21.60;73.60;;;;;;6226796;23;20333;-77
2023/09/29 03:24:30;;;;;;;15.70;9.02;;;21.70;73.60;;;;;;6226816;23;20024;-75
2023/09/29 03:26:56;;;;;;;11.55;8.13;;;21.70;73.60;;;;;;6196766;23;20315;-77
2023/09/29 03:29:22;;;;;;;15.63;9.00;;;21.60;73.40;;;;;;6215348;23;20007;-75
2023/09/29 03:31:49;;;;;;;14.88;8.60;;;21.60;73.40;;;;;;6214714;23;19996;-75
2023/09/29 03:34:15;;;;;;;12.25;8.48;;;21.60;73.10;;;;;;6214773;23;20004;-75
2023/09/29 03:36:41;;;;;;;13.90;8.77;;;21.60;73.20;;;;;;6214325;23;20023;-76
2023/09/29 03:39:09;;;;;;;15.30;8.75;;;21.60;73.40;;;;;;6214610;23;20004;-76
2023/09/29 03:41:35;;;;;;;11.82;8.13;;;21.60;73.20;;;;;;6187584;23;20016;-76
2023/09/29 03:44:01;;;;;;;12.15;8.63;;;21.50;73.30;;;;;;6187419;23;20013;-75
2023/09/29 03:46:29;;;;;;;14.73;8.23;;;21.50;73.30;;;;;;6214718;23;20001;-77
2023/09/29 03:48:55;;;;;;;14.93;9.40;;;21.50;73.20;;;;;;6214321;23;20040;-76
2023/09/29 03:51:22;;;;;;;13.18;9.35;;;21.60;73.30;;;;;;6214223;23;20419;-75
2023/09/29 03:53:49;;;;;;;12.25;9.55;;;21.60;73.30;;;;;;6215571;23;20001;-75
2023/09/29 03:56:14;;;;;;;12.77;8.77;;;21.60;73.20;;;;;;6216677;23;20040;-76
2023/09/29 03:58:41;;;;;;;14.23;9.63;;;21.50;73.20;;;;;;6216885;23;20076;-77
2023/09/29 04:01:06;;;;;;;15.45;9.80;;;21.60;73.30;;;;;;6216177;23;19997;-75
2023/09/29 04:03:33;;;;;;;12.35;8.80;;;21.50;73.20;;;;;;6215969;23;20012;-76
2023/09/29 04:05:59;;;;;;;14.77;9.50;;;21.50;73.30;;;;;;6216169;23;20020;-75
2023/09/29 04:08:25;;;;;;;15.55;9.55;;;21.50;73.40;;;;;;6215514;23;20023;-76
2023/09/29 04:10:52;;;;;;;16.60;9.15;;;21.40;73.40;;;;;;6216040;23;20001;-77
2023/09/29 04:13:18;;;;;;;14.18;9.15;;;21.40;73.40;;;;;;6215920;23;20027;-79
2023/09/29 04:15:44;;;;;;;14.45;9.73;;;21.40;73.50;;;;;;6216134;23;20457;-75
2023/09/29 04:18:10;;;;;;;13.82;10.10;;;21.40;73.60;;;;;;6215754;23;20009;-75
2023/09/29 04:20:35;;;;;;;14.60;10.43;;;21.40;73.80;;;;;;6188659;23;20434;-75
2023/09/29 04:23:01;;;;;;;16.20;9.90;;;21.40;74.00;;;;;;6215503;23;20051;-75
2023/09/29 04:25:27;;;;;;;17.52;9.43;;;21.40;73.80;;;;;;6215689;23;20419;-76
2023/09/29 04:27:52;;;;;;;17.50;9.73;;;21.30;73.90;;;;;;6215326;23;20019;-75
2023/09/29 04:30:18;;;;;;;13.35;9.25;;;21.40;73.80;;;;;;6188946;23;20000;-76
2023/09/29 04:32:47;;;;;;;19.48;10.00;;;21.40;73.80;;;;;;6188805;23;20040;-75
2023/09/29 04:35:12;;;;;;;14.07;9.80;;;21.50;73.90;;;;;;6188670;23;20435;-75
2023/09/29 04:37:38;;;;;;;15.23;8.57;;;21.50;73.60;;;;;;6215589;23;20000;-76
2023/09/29 04:40:05;;;;;;;18.52;9.70;;;21.40;73.80;;;;;;6215615;23;20003;-76
2023/09/29 04:42:32;;;;;;;15.85;9.82;;;21.40;73.90;;;;;;6215743;23;20434;-76
2023/09/29 04:44:58;;;;;;;15.05;9.68;;;21.40;73.70;;;;;;6215547;23;20007;-76
2023/09/29 04:47:24;;;;;;;18.60;9.95;;;21.40;73.70;;;;;;6215335;23;20091;-76
2023/09/29 04:49:49;;;;;;;14.38;9.70;;;21.30;73.80;;;;;;6215796;23;19996;-75
2023/09/29 04:52:16;;;;;;;13.50;9.10;;;21.30;74.10;;;;;;6215676;23;20005;-76
2023/09/29 04:54:43;;;;;;;18.02;9.90;;;21.30;73.80;;;;;;6215745;23;20004;-76
2023/09/29 04:57:09;;;;;;;16.17;9.80;;;21.30;74.20;;;;;;6215618;23;20104;-75
2023/09/29 04:59:35;;;;;;;18.48;9.57;;;21.20;74.20;;;;;;6215250;23;19997;-76
2023/09/29 05:02:01;;;;;;;16.85;10.27;;;21.20;74.30;;;;;;6215383;23;20403;-76
2023/09/29 05:04:27;;;;;;;12.60;9.13;;;21.20;74.40;;;;;;6215139;23;20095;-76
2023/09/29 05:06:53;;;;;;;21.30;10.63;;;21.10;74.20;;;;;;6214822;23;20303;-76
2023/09/29 05:09:19;;;;;;;13.98;10.55;;;21.10;74.90;;;;;;6214939;23;20020;-75
2023/09/29 05:11:45;;;;;;;15.63;10.00;;;21.10;74.50;;;;;;6215245;23;20001;-76
2023/09/29 05:14:11;;;;;;;16.95;9.73;;;21.00;74.30;;;;;;6214991;23;20050;-77
2023/09/29 05:16:37;;;;;;;18.70;9.27;;;21.00;74.40;;;;;;6214348;23;20292;-76
2023/09/29 05:19:03;;;;;;;15.82;9.38;;;21.00;74.20;;;;;;6215001;23;20004;-77
2023/09/29 05:21:31;;;;;;;16.38;9.57;;;21.00;74.00;;;;;;6214971;23;19997;-77
2023/09/29 05:23:56;;;;;;;16.20;9.68;;;21.10;74.00;;;;;;6214381;23;20020;-76
2023/09/29 05:26:22;;;;;;;15.60;8.85;;;21.10;73.80;;;;;;6188421;23;20331;-76
2023/09/29 05:28:50;;;;;;;13.98;8.60;;;21.10;73.40;;;;;;6214134;23;20062;-76
2023/09/29 05:31:16;;;;;;;15.95;9.13;;;21.10;73.20;;;;;;6214935;23;19996;-76
2023/09/29 05:33:42;;;;;;;15.98;8.60;;;21.10;72.90;;;;;;6215453;23;20008;-76
2023/09/29 05:36:07;;;;;;;12.65;8.32;;;21.10;72.70;;;;;;6215255;23;20051;-77
2023/09/29 05:38:33;;;;;;;12.77;8.18;;;21.20;72.50;;;;;;6214308;23;20072;-76
2023/09/29 05:40:59;;;;;;;14.30;8.23;;;21.10;72.20;;;;;;6225937;23;20008;-77
2023/09/29 05:43:26;;;;;;;11.80;7.80;;;21.10;71.80;;;;;;6201274;23;20005;-75
2023/09/29 05:45:51;;;;;;;18.85;9.10;;;21.00;71.60;;;;;;6227101;23;19993;-77
2023/09/29 05:48:17;;;;;;;14.40;8.10;;;21.00;71.60;;;;;;6188776;23;20071;-77
2023/09/29 05:50:43;;;;;;;13.48;8.70;;;21.00;71.60;;;;;;6215502;23;20005;-76
2023/09/29 05:53:09;;;;;;;14.43;8.55;;;21.00;71.40;;;;;;6215269;23;20061;-77
2023/09/29 05:55:34;;;;;;;15.88;9.10;;;21.10;71.20;;;;;;6215485;23;20147;-78
2023/09/29 05:58:01;;;;;;;14.43;8.75;;;21.10;71.00;;;;;;6215090;23;20043;-77
2023/09/29 06:00:27;;;;;;;15.95;9.00;;;21.30;70.90;;;;;;6215693;23;20089;-77
2023/09/29 06:02:53;;;;;;;16.30;8.40;;;21.40;70.70;;;;;;6215661;23;20028;-80
2023/09/29 06:05:19;;;;;;;19.27;8.68;;;21.60;70.50;;;;;;6215261;23;20003;-77
2023/09/29 06:07:45;;;;;;;14.75;8.50;;;21.80;70.20;;;;;;6214289;23;20068;-79
2023/09/29 06:10:12;;;;;;;13.43;8.23;;;21.90;69.40;;;;;;6214759;23;20080;-80
2023/09/29 06:12:38;;;;;;;16.40;8.45;;;22.20;69.20;;;;;;6214538;23;20004;-79
2023/09/29 06:15:05;;;;;;;15.82;7.75;;;22.40;68.80;;;;;;6214752;23;20422;-79
2023/09/29 06:17:31;;;;;;;14.75;8.80;;;22.60;68.30;;;;;;6214576;23;20005;-82
2023/09/29 06:19:57;;;;;;;13.50;7.90;;;22.80;67.70;;;;;;6214688;23;20011;-76
2023/09/29 06:22:22;;;;;;;20.00;9.00;;;23.00;67.60;;;;;;6214865;23;20027;-80
2023/09/29 06:24:48;;;;;;;11.13;8.13;;;23.10;67.30;;;;;;6214870;23;20004;-80
2023/09/29 06:27:14;;;;;;;19.73;9.07;;;23.30;66.80;;;;;;6214432;23;20000;-78
2023/09/29 06:29:40;;;;;;;15.63;8.70;;;23.50;66.40;;;;;;6214755;23;20374;-79
2023/09/29 06:32:10;;;;;;;19.92;8.65;;;23.70;66.70;;;;;;6214754;23;20001;-76
2023/09/29 06:34:36;;;;;;;13.45;7.55;;;23.90;66.30;;;;;;6214445;23;20047;-81
2023/09/29 06:37:02;;;;;;;17.10;8.25;;;24.00;65.60;;;;;;6214470;23;20005;-76
2023/09/29 06:39:28;;;;;;;12.25;7.60;;;24.10;65.10;;;;;;6215383;23;20009;-81
2023/09/29 06:41:54;;;;;;;19.23;7.35;;;24.20;65.00;;;;;;6215311;23;20075;-79
2023/09/29 06:44:19;;;;;;;16.90;8.25;;;24.40;64.90;;;;;;6187865;23;20009;-78
2023/09/29 06:46:45;;;;;;;15.10;7.95;;;24.50;64.80;;;;;;6187740;23;20008;-80
2023/09/29 06:49:11;;;;;;;18.17;7.93;;;24.50;64.10;;;;;;6214376;23;20427;-83
2023/09/29 06:51:37;;;;;;;16.73;8.63;;;24.60;64.30;;;;;;6214477;23;20008;-79
2023/09/29 06:54:03;;;;;;;23.13;8.95;;;24.70;64.10;;;;;;6214562;23;20008;-79
2023/09/29 06:56:29;;;;;;;21.35;10.57;;;24.80;63.60;;;;;;6214222;23;20059;-80
2023/09/29 06:58:55;;;;;;;17.08;8.45;;;24.80;64.80;;;;;;6214066;23;20110;-79
2023/09/29 07:01:21;;;;;;;17.77;8.18;;;24.80;63.70;;;;;;6186197;23;20110;-79
2023/09/29 07:03:47;;;;;;;17.73;8.20;;;24.90;63.60;;;;;;6213827;23;20004;-78
2023/09/29 07:06:14;;;;;;;16.40;8.15;;;24.90;63.00;;;;;;6214402;23;20423;-80
2023/09/29 07:08:39;;;;;;;15.10;8.40;;;24.80;62.70;;;;;;6186707;23;20338;-80
2023/09/29 07:11:05;;;;;;;14.95;8.15;;;24.80;62.70;;;;;;6213969;23;20000;-80
2023/09/29 07:13:31;;;;;;;15.50;8.15;;;24.80;62.70;;;;;;6214070;23;20005;-80
2023/09/29 07:15:56;;;;;;;16.70;7.90;;;24.80;63.00;;;;;;6187546;23;20015;-80
2023/09/29 07:18:22;;;;;;;14.90;7.75;;;24.80;62.80;;;;;;6207639;23;20104;-79
2023/09/29 07:20:52;;;;;;;17.08;8.00;;;25.00;62.60;;;;;;6210825;23;20004;-81
2023/09/29 07:23:22;;;;;;;19.02;7.70;;;24.90;62.30;;;;;;6212933;23;20001;-77
2023/09/29 07:25:48;;;;;;;13.10;7.65;;;25.00;62.50;;;;;;6213527;23;20001;-81
2023/09/29 07:28:18;;;;;;;14.18;7.65;;;25.10;62.00;;;;;;6213674;23;20088;-80
2023/09/29 07:30:45;;;;;;;17.52;7.93;;;25.10;62.20;;;;;;6214003;23;19996;-79
2023/09/29 07:33:11;;;;;;;13.60;7.60;;;25.10;62.20;;;;;;6214023;23;20005;-79
2023/09/29 07:35:37;;;;;;;16.33;8.10;;;25.10;62.10;;;;;;6213617;23;20001;-81
2023/09/29 07:38:04;;;;;;;16.40;8.30;;;25.10;62.20;;;;;;6213922;23;20075;-81
2023/09/29 07:40:34;;;;;;;14.82;7.40;;;25.20;62.20;;;;;;6214059;23;20008;-79
2023/09/29 07:43:01;;;;;;;14.52;7.28;;;25.20;62.10;;;;;;6213824;23;20005;-79
2023/09/29 07:45:28;;;;;;;14.38;7.70;;;25.10;62.00;;;;;;6213607;23;19997;-79
2023/09/29 07:47:53;;;;;;;13.98;7.57;;;25.20;62.30;;;;;;6213488;23;20013;-80
2023/09/29 07:50:19;;;;;;;16.13;7.72;;;25.20;62.40;;;;;;6213448;23;20373;-80
2023/09/29 07:52:45;;;;;;;15.73;8.30;;;25.20;62.40;;;;;;6214044;23;20430;-80
2023/09/29 07:55:11;;;;;;;13.55;7.38;;;25.10;62.20;;;;;;6214383;23;20075;-79
2023/09/29 07:57:38;;;;;;;15.85;7.75;;;25.00;62.20;;;;;;6230226;23;20009;-81
2023/09/29 08:00:12;;;;;;;19.55;7.97;;;24.90;62.50;;;;;;6224764;23;20335;-79
2023/09/29 08:02:38;;;;;;;15.98;8.15;;;24.80;62.40;;;;;;6188091;23;20405;-80
2023/09/29 08:05:06;;;;;;;17.48;7.55;;;24.80;62.50;;;;;;6187060;23;20020;-79
2023/09/29 08:07:31;;;;;;;15.07;7.82;;;24.60;62.80;;;;;;6213498;23;20146;-80
2023/09/29 08:09:57;;;;;;;12.55;7.93;;;24.50;62.80;;;;;;6214368;23;20435;-79
2023/09/29 08:12:23;;;;;;;21.83;7.97;;;24.40;62.80;;;;;;6214396;23;20008;-82
2023/09/29 08:14:50;;;;;;;13.27;7.47;;;24.30;63.00;;;;;;6213809;23;20001;-80
2023/09/29 08:17:15;;;;;;;14.48;7.95;;;24.30;63.10;;;;;;6214083;23;20435;-80
2023/09/29 08:19:41;;;;;;;13.82;8.00;;;24.30;63.30;;;;;;6214132;23;20011;-82
2023/09/29 08:22:07;;;;;;;12.90;7.80;;;24.30;63.20;;;;;;6214077;23;20001;-81
2023/09/29 08:24:34;;;;;;;15.48;8.82;;;24.20;63.40;;;;;;6214107;23;20001;-71
2023/09/29 08:27:02;;;;;;;11.80;7.88;;;24.20;63.70;;;;;;6213854;23;20024;-81
2023/09/29 08:29:29;;;;;;;14.00;7.55;;;24.30;63.00;;;;;;6214502;23;20078;-80
2023/09/29 08:31:56;;;;;;;17.45;8.82;;;24.20;62.80;;;;;;6214101;23;19997;-81
2023/09/29 08:34:21;;;;;;;15.40;8.02;;;24.20;63.00;;;;;;6213055;23;20039;-81
2023/09/29 08:36:47;;;;;;;22.10;7.90;;;24.20;62.90;;;;;;6214765;23;20069;-79
2023/09/29 08:39:13;;;;;;;17.08;8.30;;;24.20;63.00;;;;;;6214494;23;20004;-81
2023/09/29 08:41:58;;;;;;;12.80;7.72;;;24.20;63.50;;;;;;6215645;23;20089;-82
2023/09/29 08:44:25;;;;;;;16.15;7.53;;;24.20;63.20;;;;;;6216071;23;20490;-82
2023/09/29 08:46:53;;;;;;;13.73;7.90;;;24.30;64.00;;;;;;6215842;23;20072;-80
2023/09/29 08:49:20;;;;;;;21.05;8.07;;;24.30;64.10;;;;;;6216389;23;20012;-80
2023/09/29 08:51:47;;;;;;;15.90;8.20;;;24.40;63.80;;;;;;6215713;23;20000;-76
2023/09/29 08:54:14;;;;;;;14.45;8.10;;;24.50;63.80;;;;;;6215687;23;20047;-79
2023/09/29 08:56:40;;;;;;;14.30;8.20;;;24.50;63.70;;;;;;6215474;23;20004;-79
2023/09/29 08:59:06;;;;;;;20.65;8.68;;;24.60;63.60;;;;;;6215420;23;20088;-79
2023/09/29 09:01:32;;;;;;;22.40;8.82;;;24.70;63.50;;;;;;6215246;23;20008;-82
2023/09/29 09:03:58;;;;;;;12.57;7.75;;;24.80;63.50;;;;;;6215347;23;20001;-80
2023/09/29 09:06:26;;;;;;;17.42;8.23;;;24.80;63.70;;;;;;6215765;23;20059;-88
2023/09/29 09:08:54;;;;;;;19.77;8.70;;;24.80;63.80;;;;;;6215831;23;20090;-81
2023/09/29 09:11:23;;;;;;;20.73;8.55;;;24.90;64.00;;;;;;6216493;23;20447;-86
2023/09/29 09:13:58;;;;;;;17.70;8.27;;;24.90;63.60;;;;;;6189719;23;20016;-86
2023/09/29 09:16:36;;;;;;;13.55;7.43;;;25.00;63.60;;;;;;6215601;23;20001;-82
2023/09/29 09:19:12;;;;;;;18.15;7.35;;;25.00;63.30;;;;;;6215918;23;20004;-87
2023/09/29 09:21:38;;;;;;;19.98;7.45;;;25.00;63.60;;;;;;6189886;23;20015;-85
2023/09/29 09:24:18;;;;;;;20.98;8.18;;;25.10;63.60;;;;;;6217672;23;20000;-80
2023/09/29 09:26:46;;;;;;;17.83;8.30;;;25.10;63.50;;;;;;6215186;23;20007;-81
2023/09/29 09:29:15;;;;;;;20.50;8.20;;;25.20;63.40;;;;;;6189032;23;20044;-81
2023/09/29 09:31:51;;;;;;;15.15;7.43;;;25.20;63.30;;;;;;6215569;23;20035;-79
2023/09/29 09:34:17;;;;;;;13.77;6.68;;;25.30;63.10;;;;;;6215091;23;20074;-79
2023/09/29 09:36:52;;;;;;;15.10;7.60;;;25.30;62.50;;;;;;6215061;23;20055;-80
2023/09/29 09:39:24;;;;;;;15.43;7.85;;;25.40;62.60;;;;;;6215060;23;20027;-80
2023/09/29 09:41:54;;;;;;;11.23;7.50;;;25.40;62.60;;;;;;6214949;23;20004;-80
2023/09/29 09:44:21;;;;;;;10.60;6.68;;;25.50;62.40;;;;;;6215059;23;20000;-76
2023/09/29 09:46:53;;;;;;;14.18;7.70;;;25.50;62.20;;;;;;6212676;23;20051;-79
2023/09/29 09:49:29;;;;;;;12.77;6.90;;;25.60;61.70;;;;;;6214104;23;20004;-80
2023/09/29 09:52:03;;;;;;;14.68;7.13;;;25.70;61.50;;;;;;6213911;23;20227;-78
2023/09/29 09:54:34;;;;;;;11.30;7.10;;;25.70;60.90;;;;;;6215153;23;20004;-73
2023/09/29 09:57:01;;;;;;;18.35;7.72;;;25.80;60.80;;;;;;6214624;23;20024;-77
2023/09/29 09:59:31;;;;;;;17.98;6.63;;;25.80;60.50;;;;;;6214680;23;20075;-78
2023/09/29 10:01:57;;;;;;;18.48;7.45;;;25.90;60.00;;;;;;6214116;23;20015;-79
2023/09/29 10:04:26;;;;;;;13.82;6.40;;;26.00;59.80;;;;;;6214518;23;19996;-79
2023/09/29 10:06:55;;;;;;;16.50;7.40;;;26.10;59.20;;;;;;6213964;23;20009;-80
2023/09/29 10:09:21;;;;;;;14.05;7.78;;;26.20;59.00;;;;;;6214276;23;20020;-81
2023/09/29 10:12:00;;;;;;;16.13;6.68;;;26.20;58.40;;;;;;6187936;23;20005;-80
2023/09/29 10:14:26;;;;;;;14.45;6.28;;;26.30;58.30;;;;;;6188084;23;20013;-82
2023/09/29 10:17:02;;;;;;;12.55;6.78;;;26.30;57.90;;;;;;6214367;23;20105;-82
2023/09/29 10:19:38;;;;;;;14.40;6.32;;;26.40;57.90;;;;;;6216104;23;20442;-81
2023/09/29 10:22:04;;;;;;;20.75;7.15;;;26.50;57.50;;;;;;6214622;23;19997;-79
2023/09/29 10:24:30;;;;;;;12.48;7.07;;;26.60;57.70;;;;;;6215078;23;20084;-80
2023/09/29 10:27:05;;;;;;;12.75;6.40;;;26.70;57.80;;;;;;6214266;23;20004;-78
2023/09/29 10:29:37;;;;;;;12.82;7.13;;;26.70;56.80;;;;;;6214592;23;20055;-77
2023/09/29 10:32:13;;;;;;;13.60;6.80;;;26.80;56.50;;;;;;6215329;23;20000;-82
2023/09/29 10:34:39;;;;;;;10.77;5.55;;;26.90;56.40;;;;;;6214882;23;20001;-84
2023/09/29 10:37:05;;;;;;;14.38;5.63;;;26.90;55.70;;;;;;6215901;23;20007;-83
2023/09/29 10:39:31;;;;;;;19.90;6.10;;;27.00;54.90;;;;;;6224468;23;20431;-86
2023/09/29 10:42:21;;;;;;;11.35;5.82;;;27.10;54.90;;;;;;6221626;23;19996;-85
2023/09/29 10:44:52;;;;;;;11.68;6.38;;;27.10;54.40;;;;;;6216128;23;20004;-83
2023/09/29 10:47:38;;;;;;;8.93;5.32;;;27.10;53.60;;;;;;6215640;23;20378;-89
2023/09/29 10:50:06;;;;;;;13.90;6.07;;;27.20;54.00;;;;;;6213384;23;20091;-76
2023/09/29 10:52:32;;;;;;;14.48;6.07;;;27.30;53.60;;;;;;6214255;23;20438;-75
2023/09/29 10:54:59;;;;;;;14.02;6.15;;;27.40;53.60;;;;;;6214325;23;20007;-76
2023/09/29 10:57:30;;;;;;;10.45;6.30;;;27.50;54.20;;;;;;6213868;23;20055;-76
2023/09/29 11:00:01;;;;;;;14.73;6.50;;;27.60;54.00;;;;;;6214013;23;20005;-74
2023/09/29 11:02:35;;;;;;;12.45;5.78;;;27.60;54.30;;;;;;6214250;23;20003;-77
2023/09/29 11:05:04;;;;;;;11.15;5.43;;;27.60;52.40;;;;;;6187757;23;20316;-81
2023/09/29 11:07:41;;;;;;;14.90;6.18;;;27.70;52.40;;;;;;6214234;23;20009;-81
2023/09/29 11:10:13;;;;;;;11.02;5.95;;;27.80;52.30;;;;;;6188066;23;20012;-79
2023/09/29 11:12:43;;;;;;;10.43;6.13;;;27.90;51.90;;;;;;6214700;23;20076;-79
2023/09/29 11:15:09;;;;;;;14.02;5.80;;;27.90;51.00;;;;;;6187914;23;20079;-81
2023/09/29 11:17:50;;;;;;;10.35;5.45;;;28.00;49.80;;;;;;6214521;23;20032;-83
2023/09/29 11:20:27;;;;;;;13.98;5.43;;;28.00;50.40;;;;;;6214598;23;20020;-80
2023/09/29 11:22:59;;;;;;;12.05;5.38;;;28.00;49.20;;;;;;6214257;23;20410;-80
2023/09/29 11:25:25;;;;;;;13.23;5.25;;;28.10;48.90;;;;;;6214577;23;20001;-79
2023/09/29 11:27:52;;;;;;;10.50;5.05;;;28.10;49.00;;;;;;6214774;23;20082;-81
2023/09/29 11:30:24;;;;;;;9.85;5.10;;;28.20;48.20;;;;;;6214716;23;20012;-82
2023/09/29 11:32:50;;;;;;;11.77;5.13;;;28.20;48.30;;;;;;6214457;23;20334;-80
2023/09/29 11:35:16;;;;;;;8.70;4.95;;;28.20;48.40;;;;;;6214341;23;20077;-80
2023/09/29 11:37:46;;;;;;;10.75;5.55;;;28.30;48.40;;;;;;6214475;23;20061;-80
2023/09/29 11:40:12;;;;;;;12.27;5.78;;;28.30;48.40;;;;;;6214524;23;20016;-79
2023/09/29 11:42:44;;;;;;;13.82;5.90;;;28.30;48.20;;;;;;6217218;23;20024;-79
2023/09/29 11:45:10;;;;;;;9.00;5.53;;;28.30;48.60;;;;;;6222326;23;20308;-80
2023/09/29 11:47:41;;;;;;;13.52;5.80;;;28.40;48.70;;;;;;6214471;23;20357;-82
2023/09/29 11:50:11;;;;;;;9.68;6.07;;;28.40;49.20;;;;;;6214438;23;20441;-79
2023/09/29 11:52:39;;;;;;;12.70;6.05;;;28.40;48.80;;;;;;6187862;23;20009;-78
2023/09/29 11:55:11;;;;;;;12.40;6.00;;;28.50;48.70;;;;;;6214360;23;20383;-81
2023/09/29 11:57:42;;;;;;;11.07;6.13;;;28.60;48.20;;;;;;6187837;23;20004;-82
2023/09/29 12:00:10;;;;;;;10.02;6.00;;;28.60;47.40;;;;;;6214857;23;20007;-80
2023/09/29 12:02:37;;;;;;;16.70;6.25;;;28.60;47.90;;;;;;6217327;23;20001;-78
2023/09/29 12:05:04;;;;;;;10.93;6.47;;;28.60;48.40;;;;;;6213981;23;20001;-81
2023/09/29 12:07:31;;;;;;;11.73;6.72;;;28.70;48.80;;;;;;6214205;23;20024;-80
2023/09/29 12:09:57;;;;;;;14.18;5.72;;;28.70;48.30;;;;;;6213801;23;20009;-80
2023/09/29 12:12:23;;;;;;;13.02;5.35;;;28.80;47.80;;;;;;6214036;23;20527;-80
2023/09/29 12:14:48;;;;;;;16.40;5.93;;;28.90;47.60;;;;;;6215531;23;20036;-79
2023/09/29 12:17:14;;;;;;;12.32;6.03;;;29.00;47.00;;;;;;6219810;23;20004;-80
2023/09/29 12:19:40;;;;;;;10.25;5.97;;;29.10;48.40;;;;;;6228721;23;20076;-81
2023/09/29 12:22:05;;;;;;;10.27;5.88;;;29.10;47.40;;;;;;6231843;23;20004;-80
2023/09/29 12:24:31;;;;;;;11.23;5.40;;;29.10;48.30;;;;;;6229420;23;20016;-80
2023/09/29 12:26:57;;;;;;;9.77;6.00;;;29.20;47.70;;;;;;6190189;23;20004;-80
2023/09/29 12:29:24;;;;;;;12.40;6.03;;;29.30;48.40;;;;;;6216630;23;20083;-82
2023/09/29 12:31:50;;;;;;;12.65;5.80;;;29.30;48.20;;;;;;6215812;23;20008;-80
2023/09/29 12:34:17;;;;;;;10.07;5.88;;;29.30;47.90;;;;;;6216465;23;20085;-80
2023/09/29 12:36:44;;;;;;;13.30;5.88;;;29.30;47.10;;;;;;6216192;23;20001;-79